sensor_id;sensor_type;location;lat;lon;timestamp;P1;durP1;ratioP1;P2;durP2;ratioP2
51943;SDS011;37969;53.132;6.370;2023-07-13T00:01:37;18.35;;;4.10;;
51943;SDS011;37969;53.132;6.370;2023-07-13T00:04:03;20.02;;;4.30;;
51943;SDS011;37969;53.132;6.370;2023-07-13T00:06:30;19.55;;;4.40;;
51943;SDS011;37969;53.132;6.370;2023-07-13T00:08:58;11.95;;;3.65;;
51943;SDS011;37969;53.132;6.370;2023-07-13T00:11:25;18.02;;;4.05;;
51943;SDS011;37969;53.132;6.370;2023-07-13T00:13:51;17.58;;;4.05;;
51943;SDS011;37969;53.132;6.370;2023-07-13T00:16:17;15.52;;;4.00;;
51943;SDS011;37969;53.132;6.370;2023-07-13T00:18:44;16.63;;;3.75;;
51943;SDS011;37969;53.132;6.370;2023-07-13T00:21:11;15.10;;;4.22;;
51943;SDS011;37969;53.132;6.370;2023-07-13T00:23:38;15.85;;;4.15;;
51943;SDS011;37969;53.132;6.370;2023-07-13T00:26:06;21.73;;;4.55;;
51943;SDS011;37969;53.132;6.370;2023-07-13T00:28:33;22.17;;;4.57;;
51943;SDS011;37969;53.132;6.370;2023-07-13T00:30:59;14.00;;;4.00;;
51943;SDS011;37969;53.132;6.370;2023-07-13T00:33:26;20.55;;;4.40;;
51943;SDS011;37969;53.132;6.370;2023-07-13T00:35:53;20.45;;;4.18;;
51943;SDS011;37969;53.132;6.370;2023-07-13T00:38:19;18.45;;;4.15;;
51943;SDS011;37969;53.132;6.370;2023-07-13T00:40:46;18.80;;;3.90;;
51943;SDS011;37969;53.132;6.370;2023-07-13T00:43:13;21.52;;;4.97;;
51943;SDS011;37969;53.132;6.370;2023-07-13T00:50:37;23.02;;;5.18;;
51943;SDS011;37969;53.132;6.370;2023-07-13T00:53:03;20.50;;;5.15;;
51943;SDS011;37969;53.132;6.370;2023-07-13T00:55:29;18.13;;;5.97;;
51943;SDS011;37969;53.132;6.370;2023-07-13T00:57:55;19.98;;;4.57;;
51943;SDS011;37969;53.132;6.370;2023-07-13T01:00:22;25.00;;;5.65;;
51943;SDS011;37969;53.132;6.370;2023-07-13T01:02:49;23.55;;;5.28;;
51943;SDS011;37969;53.132;6.370;2023-07-13T01:05:20;26.02;;;6.07;;
51943;SDS011;37969;53.132;6.370;2023-07-13T01:07:47;13.52;;;4.88;;
51943;SDS011;37969;53.132;6.370;2023-07-13T01:10:14;18.80;;;5.20;;
51943;SDS011;37969;53.132;6.370;2023-07-13T01:12:40;19.38;;;5.00;;
51943;SDS011;37969;53.132;6.370;2023-07-13T01:17:52;22.55;;;4.85;;
51943;SDS011;37969;53.132;6.370;2023-07-13T01:20:20;17.42;;;5.10;;
51943;SDS011;37969;53.132;6.370;2023-07-13T01:22:46;16.88;;;5.03;;
51943;SDS011;37969;53.132;6.370;2023-07-13T01:25:12;16.35;;;4.93;;
51943;SDS011;37969;53.132;6.370;2023-07-13T01:27:39;19.63;;;4.90;;
51943;SDS011;37969;53.132;6.370;2023-07-13T01:30:06;18.80;;;4.95;;
51943;SDS011;37969;53.132;6.370;2023-07-13T01:32:32;14.23;;;4.15;;
51943;SDS011;37969;53.132;6.370;2023-07-13T01:34:59;19.10;;;4.25;;
51943;SDS011;37969;53.132;6.370;2023-07-13T01:37:25;19.35;;;4.63;;
51943;SDS011;37969;53.132;6.370;2023-07-13T01:39:52;21.08;;;5.40;;
51943;SDS011;37969;53.132;6.370;2023-07-13T01:42:18;22.58;;;5.60;;
51943;SDS011;37969;53.132;6.370;2023-07-13T01:44:45;20.02;;;5.75;;
51943;SDS011;37969;53.132;6.370;2023-07-13T01:47:11;20.27;;;5.45;;
51943;SDS011;37969;53.132;6.370;2023-07-13T01:49:37;17.65;;;4.72;;
51943;SDS011;37969;53.132;6.370;2023-07-13T01:52:03;18.83;;;4.97;;
51943;SDS011;37969;53.132;6.370;2023-07-13T01:54:30;14.52;;;4.13;;
51943;SDS011;37969;53.132;6.370;2023-07-13T01:56:56;14.48;;;5.07;;
51943;SDS011;37969;53.132;6.370;2023-07-13T01:59:22;16.00;;;5.00;;
51943;SDS011;37969;53.132;6.370;2023-07-13T02:01:48;11.88;;;4.22;;
51943;SDS011;37969;53.132;6.370;2023-07-13T02:04:15;16.13;;;4.38;;
51943;SDS011;37969;53.132;6.370;2023-07-13T02:06:41;13.60;;;4.28;;
51943;SDS011;37969;53.132;6.370;2023-07-13T02:09:07;12.38;;;3.90;;
51943;SDS011;37969;53.132;6.370;2023-07-13T02:11:33;13.15;;;3.63;;
51943;SDS011;37969;53.132;6.370;2023-07-13T02:14:00;9.93;;;3.67;;
51943;SDS011;37969;53.132;6.370;2023-07-13T02:16:27;8.15;;;3.35;;
51943;SDS011;37969;53.132;6.370;2023-07-13T02:18:53;10.10;;;3.45;;
51943;SDS011;37969;53.132;6.370;2023-07-13T02:21:20;18.13;;;3.83;;
51943;SDS011;37969;53.132;6.370;2023-07-13T02:23:46;11.90;;;4.50;;
51943;SDS011;37969;53.132;6.370;2023-07-13T02:26:12;15.50;;;3.88;;
51943;SDS011;37969;53.132;6.370;2023-07-13T02:28:38;17.60;;;4.18;;
51943;SDS011;37969;53.132;6.370;2023-07-13T02:31:05;16.58;;;4.63;;
51943;SDS011;37969;53.132;6.370;2023-07-13T02:33:32;18.95;;;5.18;;
51943;SDS011;37969;53.132;6.370;2023-07-13T02:35:58;17.38;;;5.20;;
51943;SDS011;37969;53.132;6.370;2023-07-13T02:38:24;14.85;;;5.22;;
51943;SDS011;37969;53.132;6.370;2023-07-13T02:40:51;19.35;;;5.78;;
51943;SDS011;37969;53.132;6.370;2023-07-13T02:43:17;16.92;;;5.47;;
51943;SDS011;37969;53.132;6.370;2023-07-13T02:45:43;21.88;;;5.50;;
51943;SDS011;37969;53.132;6.370;2023-07-13T02:48:10;19.10;;;5.68;;
51943;SDS011;37969;53.132;6.370;2023-07-13T02:50:36;22.83;;;5.97;;
51943;SDS011;37969;53.132;6.370;2023-07-13T02:53:02;17.80;;;5.57;;
51943;SDS011;37969;53.132;6.370;2023-07-13T02:55:28;21.92;;;5.78;;
51943;SDS011;37969;53.132;6.370;2023-07-13T02:57:55;21.02;;;5.85;;
51943;SDS011;37969;53.132;6.370;2023-07-13T03:00:22;24.58;;;6.10;;
51943;SDS011;37969;53.132;6.370;2023-07-13T03:02:48;22.08;;;5.20;;
51943;SDS011;37969;53.132;6.370;2023-07-13T03:05:15;22.63;;;5.88;;
51943;SDS011;37969;53.132;6.370;2023-07-13T03:07:42;18.75;;;5.97;;
51943;SDS011;37969;53.132;6.370;2023-07-13T03:10:09;16.63;;;5.50;;
51943;SDS011;37969;53.132;6.370;2023-07-13T03:12:35;21.63;;;5.60;;
51943;SDS011;37969;53.132;6.370;2023-07-13T03:15:01;21.08;;;5.47;;
51943;SDS011;37969;53.132;6.370;2023-07-13T03:17:27;21.50;;;6.20;;
51943;SDS011;37969;53.132;6.370;2023-07-13T03:19:53;27.15;;;6.10;;
51943;SDS011;37969;53.132;6.370;2023-07-13T03:22:20;20.17;;;5.85;;
51943;SDS011;37969;53.132;6.370;2023-07-13T03:24:46;23.52;;;6.10;;
51943;SDS011;37969;53.132;6.370;2023-07-13T03:27:14;19.60;;;5.75;;
51943;SDS011;37969;53.132;6.370;2023-07-13T03:29:40;16.42;;;5.43;;
51943;SDS011;37969;53.132;6.370;2023-07-13T03:32:07;17.90;;;5.53;;
51943;SDS011;37969;53.132;6.370;2023-07-13T03:34:33;14.85;;;5.18;;
51943;SDS011;37969;53.132;6.370;2023-07-13T03:36:59;23.05;;;5.78;;
51943;SDS011;37969;53.132;6.370;2023-07-13T03:39:25;14.98;;;5.20;;
51943;SDS011;37969;53.132;6.370;2023-07-13T03:41:52;19.10;;;5.30;;
51943;SDS011;37969;53.132;6.370;2023-07-13T03:44:18;18.40;;;5.13;;
51943;SDS011;37969;53.132;6.370;2023-07-13T03:46:44;20.30;;;5.72;;
51943;SDS011;37969;53.132;6.370;2023-07-13T03:49:11;19.48;;;5.63;;
51943;SDS011;37969;53.132;6.370;2023-07-13T03:51:37;19.77;;;5.22;;
51943;SDS011;37969;53.132;6.370;2023-07-13T03:54:03;20.02;;;6.15;;
51943;SDS011;37969;53.132;6.370;2023-07-13T03:56:30;20.25;;;5.45;;
51943;SDS011;37969;53.132;6.370;2023-07-13T03:58:58;16.02;;;5.55;;
51943;SDS011;37969;53.132;6.370;2023-07-13T04:01:25;21.83;;;6.10;;
51943;SDS011;37969;53.132;6.370;2023-07-13T04:03:51;14.93;;;5.18;;
51943;SDS011;37969;53.132;6.370;2023-07-13T04:06:19;23.35;;;5.60;;
51943;SDS011;37969;53.132;6.370;2023-07-13T04:08:47;19.42;;;5.95;;
51943;SDS011;37969;53.132;6.370;2023-07-13T04:11:14;19.73;;;6.28;;
51943;SDS011;37969;53.132;6.370;2023-07-13T04:13:40;30.60;;;5.45;;
51943;SDS011;37969;53.132;6.370;2023-07-13T04:16:06;25.95;;;5.78;;
51943;SDS011;37969;53.132;6.370;2023-07-13T04:18:33;25.08;;;5.75;;
51943;SDS011;37969;53.132;6.370;2023-07-13T04:20:59;28.65;;;6.32;;
51943;SDS011;37969;53.132;6.370;2023-07-13T04:23:25;27.38;;;6.35;;
51943;SDS011;37969;53.132;6.370;2023-07-13T04:25:51;16.30;;;5.38;;
51943;SDS011;37969;53.132;6.370;2023-07-13T04:28:19;24.77;;;6.05;;
51943;SDS011;37969;53.132;6.370;2023-07-13T04:30:46;20.48;;;5.93;;
51943;SDS011;37969;53.132;6.370;2023-07-13T04:33:12;22.48;;;5.82;;
51943;SDS011;37969;53.132;6.370;2023-07-13T04:35:38;23.00;;;5.97;;
51943;SDS011;37969;53.132;6.370;2023-07-13T04:38:04;22.83;;;6.30;;
51943;SDS011;37969;53.132;6.370;2023-07-13T04:40:31;20.30;;;6.25;;
51943;SDS011;37969;53.132;6.370;2023-07-13T04:42:57;23.13;;;5.93;;
51943;SDS011;37969;53.132;6.370;2023-07-13T04:45:24;23.58;;;5.70;;
51943;SDS011;37969;53.132;6.370;2023-07-13T04:47:50;19.48;;;5.90;;
51943;SDS011;37969;53.132;6.370;2023-07-13T04:50:17;19.42;;;5.45;;
51943;SDS011;37969;53.132;6.370;2023-07-13T04:52:48;21.20;;;6.15;;
51943;SDS011;37969;53.132;6.370;2023-07-13T04:55:15;19.48;;;5.90;;
51943;SDS011;37969;53.132;6.370;2023-07-13T04:57:41;17.80;;;6.00;;
51943;SDS011;37969;53.132;6.370;2023-07-13T05:00:07;23.42;;;6.15;;
51943;SDS011;37969;53.132;6.370;2023-07-13T05:02:34;23.02;;;5.75;;
51943;SDS011;37969;53.132;6.370;2023-07-13T05:05:00;23.20;;;5.47;;
51943;SDS011;37969;53.132;6.370;2023-07-13T05:07:28;23.75;;;6.30;;
51943;SDS011;37969;53.132;6.370;2023-07-13T05:09:55;23.77;;;6.60;;
51943;SDS011;37969;53.132;6.370;2023-07-13T05:12:21;22.50;;;5.55;;
51943;SDS011;37969;53.132;6.370;2023-07-13T05:14:47;23.15;;;5.75;;
51943;SDS011;37969;53.132;6.370;2023-07-13T05:17:14;21.38;;;6.30;;
51943;SDS011;37969;53.132;6.370;2023-07-13T05:19:41;21.45;;;5.75;;
51943;SDS011;37969;53.132;6.370;2023-07-13T05:22:07;22.65;;;5.85;;
51943;SDS011;37969;53.132;6.370;2023-07-13T05:24:33;21.08;;;6.05;;
51943;SDS011;37969;53.132;6.370;2023-07-13T05:27:00;21.02;;;5.50;;
51943;SDS011;37969;53.132;6.370;2023-07-13T05:29:26;19.50;;;5.50;;
51943;SDS011;37969;53.132;6.370;2023-07-13T05:31:52;22.58;;;5.43;;
51943;SDS011;37969;53.132;6.370;2023-07-13T05:34:18;21.20;;;5.10;;
51943;SDS011;37969;53.132;6.370;2023-07-13T05:36:45;16.88;;;5.18;;
51943;SDS011;37969;53.132;6.370;2023-07-13T05:39:11;22.50;;;5.22;;
51943;SDS011;37969;53.132;6.370;2023-07-13T05:41:37;18.63;;;4.72;;
51943;SDS011;37969;53.132;6.370;2023-07-13T05:44:03;18.13;;;4.88;;
51943;SDS011;37969;53.132;6.370;2023-07-13T05:46:29;24.55;;;5.65;;
51943;SDS011;37969;53.132;6.370;2023-07-13T05:48:56;17.67;;;5.35;;
51943;SDS011;37969;53.132;6.370;2023-07-13T05:51:22;23.83;;;5.60;;
51943;SDS011;37969;53.132;6.370;2023-07-13T05:53:48;23.42;;;5.00;;
51943;SDS011;37969;53.132;6.370;2023-07-13T05:56:14;17.60;;;4.90;;
51943;SDS011;37969;53.132;6.370;2023-07-13T05:58:41;15.88;;;4.82;;
51943;SDS011;37969;53.132;6.370;2023-07-13T06:01:10;20.58;;;4.75;;
51943;SDS011;37969;53.132;6.370;2023-07-13T06:03:36;19.90;;;4.72;;
51943;SDS011;37969;53.132;6.370;2023-07-13T06:06:04;17.40;;;4.72;;
51943;SDS011;37969;53.132;6.370;2023-07-13T06:08:30;14.70;;;4.28;;
51943;SDS011;37969;53.132;6.370;2023-07-13T06:11:05;20.75;;;4.88;;
51943;SDS011;37969;53.132;6.370;2023-07-13T06:13:31;15.90;;;4.18;;
51943;SDS011;37969;53.132;6.370;2023-07-13T06:15:58;12.43;;;3.88;;
51943;SDS011;37969;53.132;6.370;2023-07-13T06:18:24;13.98;;;3.83;;
51943;SDS011;37969;53.132;6.370;2023-07-13T06:20:51;11.82;;;3.28;;
51943;SDS011;37969;53.132;6.370;2023-07-13T06:23:17;13.07;;;3.63;;
51943;SDS011;37969;53.132;6.370;2023-07-13T06:25:43;14.65;;;4.18;;
51943;SDS011;37969;53.132;6.370;2023-07-13T06:28:09;15.88;;;4.78;;
51943;SDS011;37969;53.132;6.370;2023-07-13T06:30:37;15.68;;;4.35;;
51943;SDS011;37969;53.132;6.370;2023-07-13T06:33:04;12.48;;;3.58;;
51943;SDS011;37969;53.132;6.370;2023-07-13T06:35:30;13.05;;;3.72;;
51943;SDS011;37969;53.132;6.370;2023-07-13T06:37:56;11.63;;;3.42;;
51943;SDS011;37969;53.132;6.370;2023-07-13T06:40:23;16.33;;;3.42;;
51943;SDS011;37969;53.132;6.370;2023-07-13T06:42:49;19.67;;;4.20;;
51943;SDS011;37969;53.132;6.370;2023-07-13T06:45:15;13.75;;;3.65;;
51943;SDS011;37969;53.132;6.370;2023-07-13T06:47:41;17.95;;;4.10;;
51943;SDS011;37969;53.132;6.370;2023-07-13T06:50:08;10.05;;;3.30;;
51943;SDS011;37969;53.132;6.370;2023-07-13T06:52:34;12.70;;;3.33;;
51943;SDS011;37969;53.132;6.370;2023-07-13T06:55:00;11.77;;;3.50;;
51943;SDS011;37969;53.132;6.370;2023-07-13T06:57:27;14.45;;;2.90;;
51943;SDS011;37969;53.132;6.370;2023-07-13T06:59:53;10.00;;;3.60;;
51943;SDS011;37969;53.132;6.370;2023-07-13T07:02:19;12.15;;;3.17;;
51943;SDS011;37969;53.132;6.370;2023-07-13T07:04:45;16.45;;;3.38;;
51943;SDS011;37969;53.132;6.370;2023-07-13T07:07:12;16.02;;;3.63;;
51943;SDS011;37969;53.132;6.370;2023-07-13T07:09:38;11.27;;;3.22;;
51943;SDS011;37969;53.132;6.370;2023-07-13T07:12:04;10.88;;;3.10;;
51943;SDS011;37969;53.132;6.370;2023-07-13T07:14:31;13.45;;;3.42;;
51943;SDS011;37969;53.132;6.370;2023-07-13T07:16:59;9.93;;;3.15;;
51943;SDS011;37969;53.132;6.370;2023-07-13T07:19:25;8.07;;;2.78;;
51943;SDS011;37969;53.132;6.370;2023-07-13T07:21:52;14.00;;;3.30;;
51943;SDS011;37969;53.132;6.370;2023-07-13T07:24:18;8.35;;;2.22;;
51943;SDS011;37969;53.132;6.370;2023-07-13T07:26:44;9.07;;;2.17;;
51943;SDS011;37969;53.132;6.370;2023-07-13T07:29:10;7.72;;;2.50;;
51943;SDS011;37969;53.132;6.370;2023-07-13T07:31:37;7.55;;;2.47;;
51943;SDS011;37969;53.132;6.370;2023-07-13T07:34:03;10.07;;;2.45;;
51943;SDS011;37969;53.132;6.370;2023-07-13T07:36:29;6.97;;;2.38;;
51943;SDS011;37969;53.132;6.370;2023-07-13T07:38:55;6.68;;;2.45;;
51943;SDS011;37969;53.132;6.370;2023-07-13T07:41:22;8.10;;;2.47;;
51943;SDS011;37969;53.132;6.370;2023-07-13T07:43:48;12.95;;;3.05;;
51943;SDS011;37969;53.132;6.370;2023-07-13T07:46:14;9.38;;;3.22;;
51943;SDS011;37969;53.132;6.370;2023-07-13T07:48:40;9.82;;;2.55;;
51943;SDS011;37969;53.132;6.370;2023-07-13T07:51:07;4.85;;;2.50;;
51943;SDS011;37969;53.132;6.370;2023-07-13T07:53:33;8.55;;;2.55;;
51943;SDS011;37969;53.132;6.370;2023-07-13T07:55:59;8.80;;;2.50;;
51943;SDS011;37969;53.132;6.370;2023-07-13T07:58:25;5.50;;;2.22;;
51943;SDS011;37969;53.132;6.370;2023-07-13T08:00:52;5.97;;;2.25;;
51943;SDS011;37969;53.132;6.370;2023-07-13T08:03:18;5.95;;;2.53;;
51943;SDS011;37969;53.132;6.370;2023-07-13T08:05:44;6.53;;;2.45;;
51943;SDS011;37969;53.132;6.370;2023-07-13T08:08:10;7.80;;;2.50;;
51943;SDS011;37969;53.132;6.370;2023-07-13T08:10:37;9.25;;;2.60;;
51943;SDS011;37969;53.132;6.370;2023-07-13T08:13:03;8.95;;;2.92;;
51943;SDS011;37969;53.132;6.370;2023-07-13T08:15:29;5.47;;;2.30;;
51943;SDS011;37969;53.132;6.370;2023-07-13T08:17:55;5.35;;;1.92;;
51943;SDS011;37969;53.132;6.370;2023-07-13T08:20:22;7.82;;;2.20;;
51943;SDS011;37969;53.132;6.370;2023-07-13T08:22:48;6.47;;;2.08;;
51943;SDS011;37969;53.132;6.370;2023-07-13T08:25:15;8.85;;;2.85;;
51943;SDS011;37969;53.132;6.370;2023-07-13T08:27:41;7.35;;;2.25;;
51943;SDS011;37969;53.132;6.370;2023-07-13T08:30:07;8.20;;;2.25;;
51943;SDS011;37969;53.132;6.370;2023-07-13T08:32:34;7.45;;;2.25;;
51943;SDS011;37969;53.132;6.370;2023-07-13T08:35:00;3.50;;;1.55;;
51943;SDS011;37969;53.132;6.370;2023-07-13T08:37:26;7.70;;;2.33;;
51943;SDS011;37969;53.132;6.370;2023-07-13T08:39:52;4.55;;;2.28;;
51943;SDS011;37969;53.132;6.370;2023-07-13T08:47:20;8.40;;;2.15;;
51943;SDS011;37969;53.132;6.370;2023-07-13T08:49:47;7.07;;;2.28;;
51943;SDS011;37969;53.132;6.370;2023-07-13T08:52:18;7.70;;;2.50;;
51943;SDS011;37969;53.132;6.370;2023-07-13T08:54:51;6.60;;;2.30;;
51943;SDS011;37969;53.132;6.370;2023-07-13T08:57:20;9.32;;;2.35;;
51943;SDS011;37969;53.132;6.370;2023-07-13T08:59:47;6.43;;;1.77;;
51943;SDS011;37969;53.132;6.370;2023-07-13T09:02:17;6.15;;;2.30;;
51943;SDS011;37969;53.132;6.370;2023-07-13T09:04:49;10.15;;;2.45;;
51943;SDS011;37969;53.132;6.370;2023-07-13T09:10:05;5.50;;;2.50;;
51943;SDS011;37969;53.132;6.370;2023-07-13T09:12:43;7.97;;;2.50;;
51943;SDS011;37969;53.132;6.370;2023-07-13T09:15:24;8.48;;;2.58;;
51943;SDS011;37969;53.132;6.370;2023-07-13T09:17:51;5.63;;;2.25;;
51943;SDS011;37969;53.132;6.370;2023-07-13T09:22:46;4.85;;;2.20;;
51943;SDS011;37969;53.132;6.370;2023-07-13T09:27:45;5.85;;;2.10;;
51943;SDS011;37969;53.132;6.370;2023-07-13T09:32:41;6.55;;;2.65;;
51943;SDS011;37969;53.132;6.370;2023-07-13T09:35:11;7.32;;;2.20;;
51943;SDS011;37969;53.132;6.370;2023-07-13T09:37:37;7.53;;;2.25;;
51943;SDS011;37969;53.132;6.370;2023-07-13T09:40:09;4.03;;;2.20;;
51943;SDS011;37969;53.132;6.370;2023-07-13T09:42:37;6.82;;;2.08;;
51943;SDS011;37969;53.132;6.370;2023-07-13T09:45:03;6.43;;;2.15;;
51943;SDS011;37969;53.132;6.370;2023-07-13T09:47:32;10.90;;;2.47;;
51943;SDS011;37969;53.132;6.370;2023-07-13T09:49:59;8.65;;;2.67;;
51943;SDS011;37969;53.132;6.370;2023-07-13T09:52:27;5.75;;;2.25;;
51943;SDS011;37969;53.132;6.370;2023-07-13T09:54:54;6.22;;;1.60;;
51943;SDS011;37969;53.132;6.370;2023-07-13T09:57:25;5.15;;;1.70;;
51943;SDS011;37969;53.132;6.370;2023-07-13T09:59:52;6.05;;;1.90;;
51943;SDS011;37969;53.132;6.370;2023-07-13T10:02:31;5.32;;;2.08;;
51943;SDS011;37969;53.132;6.370;2023-07-13T10:07:24;6.40;;;1.88;;
51943;SDS011;37969;53.132;6.370;2023-07-13T10:09:52;4.95;;;1.95;;
51943;SDS011;37969;53.132;6.370;2023-07-13T10:12:19;3.80;;;1.77;;
51943;SDS011;37969;53.132;6.370;2023-07-13T10:14:45;4.88;;;1.55;;
51943;SDS011;37969;53.132;6.370;2023-07-13T10:17:12;5.20;;;1.60;;
51943;SDS011;37969;53.132;6.370;2023-07-13T10:19:39;4.15;;;1.20;;
51943;SDS011;37969;53.132;6.370;2023-07-13T10:22:23;4.05;;;1.40;;
51943;SDS011;37969;53.132;6.370;2023-07-13T10:24:51;3.83;;;1.63;;
51943;SDS011;37969;53.132;6.370;2023-07-13T10:27:20;5.18;;;1.50;;
51943;SDS011;37969;53.132;6.370;2023-07-13T10:29:53;3.25;;;1.77;;
51943;SDS011;37969;53.132;6.370;2023-07-13T10:32:20;4.85;;;1.50;;
51943;SDS011;37969;53.132;6.370;2023-07-13T10:34:48;3.75;;;1.63;;
51943;SDS011;37969;53.132;6.370;2023-07-13T10:37:19;2.97;;;1.25;;
51943;SDS011;37969;53.132;6.370;2023-07-13T10:39:46;6.78;;;1.80;;
51943;SDS011;37969;53.132;6.370;2023-07-13T10:42:15;3.67;;;1.50;;
51943;SDS011;37969;53.132;6.370;2023-07-13T10:44:42;3.65;;;1.33;;
51943;SDS011;37969;53.132;6.370;2023-07-13T10:47:11;4.43;;;1.50;;
51943;SDS011;37969;53.132;6.370;2023-07-13T10:49:39;3.33;;;1.30;;
51943;SDS011;37969;53.132;6.370;2023-07-13T10:52:35;3.38;;;1.15;;
51943;SDS011;37969;53.132;6.370;2023-07-13T10:54:54;4.82;;;1.15;;
51943;SDS011;37969;53.132;6.370;2023-07-13T10:57:22;2.42;;;1.20;;
51943;SDS011;37969;53.132;6.370;2023-07-13T11:00:10;5.40;;;1.55;;
51943;SDS011;37969;53.132;6.370;2023-07-13T11:02:35;6.88;;;1.90;;
51943;SDS011;37969;53.132;6.370;2023-07-13T11:05:13;7.40;;;1.38;;
51943;SDS011;37969;53.132;6.370;2023-07-13T11:07:52;4.45;;;1.40;;
51943;SDS011;37969;53.132;6.370;2023-07-13T11:13:29;6.47;;;1.63;;
51943;SDS011;37969;53.132;6.370;2023-07-13T11:15:52;4.15;;;1.52;;
51943;SDS011;37969;53.132;6.370;2023-07-13T11:18:19;4.93;;;1.52;;
51943;SDS011;37969;53.132;6.370;2023-07-13T11:20:46;6.50;;;1.80;;
51943;SDS011;37969;53.132;6.370;2023-07-13T11:25:42;6.38;;;1.50;;
51943;SDS011;37969;53.132;6.370;2023-07-13T11:30:37;5.25;;;1.73;;
51943;SDS011;37969;53.132;6.370;2023-07-13T11:35:44;5.80;;;1.67;;
51943;SDS011;37969;53.132;6.370;2023-07-13T11:38:12;4.85;;;1.40;;
51943;SDS011;37969;53.132;6.370;2023-07-13T11:40:40;4.30;;;1.52;;
51943;SDS011;37969;53.132;6.370;2023-07-13T11:43:07;5.13;;;1.65;;
51943;SDS011;37969;53.132;6.370;2023-07-13T11:45:33;4.00;;;1.58;;
51943;SDS011;37969;53.132;6.370;2023-07-13T11:47:59;3.33;;;1.65;;
51943;SDS011;37969;53.132;6.370;2023-07-13T11:50:26;5.22;;;1.55;;
51943;SDS011;37969;53.132;6.370;2023-07-13T11:52:53;5.78;;;1.70;;
51943;SDS011;37969;53.132;6.370;2023-07-13T11:55:21;3.97;;;1.63;;
51943;SDS011;37969;53.132;6.370;2023-07-13T11:57:51;3.70;;;1.33;;
51943;SDS011;37969;53.132;6.370;2023-07-13T12:00:22;5.88;;;1.38;;
51943;SDS011;37969;53.132;6.370;2023-07-13T12:02:49;3.72;;;1.58;;
51943;SDS011;37969;53.132;6.370;2023-07-13T12:05:17;9.27;;;1.77;;
51943;SDS011;37969;53.132;6.370;2023-07-13T12:07:43;5.80;;;1.55;;
51943;SDS011;37969;53.132;6.370;2023-07-13T12:12:46;4.85;;;2.00;;
51943;SDS011;37969;53.132;6.370;2023-07-13T12:15:13;2.63;;;1.40;;
51943;SDS011;37969;53.132;6.370;2023-07-13T12:17:39;4.97;;;1.50;;
51943;SDS011;37969;53.132;6.370;2023-07-13T12:20:18;4.70;;;1.50;;
51943;SDS011;37969;53.132;6.370;2023-07-13T12:22:46;6.25;;;1.45;;
51943;SDS011;37969;53.132;6.370;2023-07-13T12:25:12;5.07;;;1.50;;
51943;SDS011;37969;53.132;6.370;2023-07-13T12:27:38;5.25;;;1.55;;
51943;SDS011;37969;53.132;6.370;2023-07-13T12:30:15;4.05;;;2.03;;
51943;SDS011;37969;53.132;6.370;2023-07-13T12:32:58;3.67;;;1.30;;
51943;SDS011;37969;53.132;6.370;2023-07-13T12:35:26;3.17;;;1.77;;
51943;SDS011;37969;53.132;6.370;2023-07-13T12:37:56;3.30;;;1.35;;
51943;SDS011;37969;53.132;6.370;2023-07-13T12:40:25;6.07;;;1.38;;
51943;SDS011;37969;53.132;6.370;2023-07-13T12:45:20;4.65;;;1.42;;
51943;SDS011;37969;53.132;6.370;2023-07-13T12:47:48;6.10;;;1.67;;
51943;SDS011;37969;53.132;6.370;2023-07-13T12:50:17;6.30;;;1.40;;
51943;SDS011;37969;53.132;6.370;2023-07-13T12:52:44;4.53;;;1.63;;
51943;SDS011;37969;53.132;6.370;2023-07-13T12:55:23;5.40;;;1.67;;
51943;SDS011;37969;53.132;6.370;2023-07-13T12:57:51;5.70;;;1.52;;
51943;SDS011;37969;53.132;6.370;2023-07-13T13:00:20;3.28;;;1.35;;
51943;SDS011;37969;53.132;6.370;2023-07-13T13:02:50;2.72;;;1.13;;
51943;SDS011;37969;53.132;6.370;2023-07-13T13:05:19;4.05;;;1.30;;
51943;SDS011;37969;53.132;6.370;2023-07-13T13:07:49;6.35;;;1.90;;
51943;SDS011;37969;53.132;6.370;2023-07-13T13:10:15;5.88;;;1.33;;
51943;SDS011;37969;53.132;6.370;2023-07-13T13:12:42;4.50;;;1.45;;
51943;SDS011;37969;53.132;6.370;2023-07-13T13:15:08;4.00;;;1.67;;
51943;SDS011;37969;53.132;6.370;2023-07-13T13:17:35;5.75;;;1.42;;
51943;SDS011;37969;53.132;6.370;2023-07-13T13:20:04;3.47;;;1.20;;
51943;SDS011;37969;53.132;6.370;2023-07-13T13:22:31;5.50;;;1.50;;
51943;SDS011;37969;53.132;6.370;2023-07-13T13:24:57;5.20;;;1.50;;
51943;SDS011;37969;53.132;6.370;2023-07-13T13:27:24;3.08;;;1.30;;
51943;SDS011;37969;53.132;6.370;2023-07-13T13:29:51;5.70;;;1.83;;
51943;SDS011;37969;53.132;6.370;2023-07-13T13:32:18;7.10;;;1.65;;
51943;SDS011;37969;53.132;6.370;2023-07-13T13:34:44;3.53;;;1.23;;
51943;SDS011;37969;53.132;6.370;2023-07-13T13:37:17;7.15;;;1.40;;
51943;SDS011;37969;53.132;6.370;2023-07-13T13:39:45;5.60;;;2.00;;
51943;SDS011;37969;53.132;6.370;2023-07-13T13:42:12;6.45;;;1.90;;
51943;SDS011;37969;53.132;6.370;2023-07-13T13:44:39;3.92;;;1.45;;
51943;SDS011;37969;53.132;6.370;2023-07-13T13:47:07;10.45;;;2.00;;
51943;SDS011;37969;53.132;6.370;2023-07-13T13:49:43;7.55;;;1.60;;
51943;SDS011;37969;53.132;6.370;2023-07-13T13:52:09;4.97;;;1.90;;
51943;SDS011;37969;53.132;6.370;2023-07-13T13:54:35;5.95;;;1.77;;
51943;SDS011;37969;53.132;6.370;2023-07-13T13:57:02;8.10;;;1.77;;
51943;SDS011;37969;53.132;6.370;2023-07-13T13:59:30;6.05;;;1.77;;
51943;SDS011;37969;53.132;6.370;2023-07-13T14:01:57;7.22;;;2.17;;
51943;SDS011;37969;53.132;6.370;2023-07-13T14:04:25;3.28;;;1.40;;
51943;SDS011;37969;53.132;6.370;2023-07-13T14:06:52;4.28;;;1.55;;
51943;SDS011;37969;53.132;6.370;2023-07-13T14:09:18;7.05;;;1.95;;
51943;SDS011;37969;53.132;6.370;2023-07-13T14:11:45;3.75;;;1.55;;
51943;SDS011;37969;53.132;6.370;2023-07-13T14:14:22;3.92;;;1.90;;
51943;SDS011;37969;53.132;6.370;2023-07-13T14:16:49;8.77;;;2.05;;
51943;SDS011;37969;53.132;6.370;2023-07-13T14:19:20;7.00;;;1.60;;
51943;SDS011;37969;53.132;6.370;2023-07-13T14:21:46;4.97;;;1.42;;
51943;SDS011;37969;53.132;6.370;2023-07-13T14:24:14;2.88;;;1.50;;
51943;SDS011;37969;53.132;6.370;2023-07-13T14:26:41;7.32;;;2.15;;
51943;SDS011;37969;53.132;6.370;2023-07-13T14:29:11;4.88;;;1.80;;
51943;SDS011;37969;53.132;6.370;2023-07-13T14:31:38;5.72;;;1.88;;
51943;SDS011;37969;53.132;6.370;2023-07-13T14:34:04;7.53;;;1.70;;
51943;SDS011;37969;53.132;6.370;2023-07-13T14:36:32;6.78;;;1.90;;
51943;SDS011;37969;53.132;6.370;2023-07-13T14:38:59;7.05;;;1.92;;
51943;SDS011;37969;53.132;6.370;2023-07-13T14:41:26;8.00;;;2.10;;
51943;SDS011;37969;53.132;6.370;2023-07-13T14:43:52;7.40;;;2.25;;
51943;SDS011;37969;53.132;6.370;2023-07-13T14:46:24;8.45;;;2.50;;
51943;SDS011;37969;53.132;6.370;2023-07-13T14:48:53;8.65;;;3.08;;
51943;SDS011;37969;53.132;6.370;2023-07-13T14:51:22;6.30;;;2.10;;
51943;SDS011;37969;53.132;6.370;2023-07-13T14:53:48;6.03;;;2.03;;
51943;SDS011;37969;53.132;6.370;2023-07-13T14:56:15;4.35;;;1.73;;
51943;SDS011;37969;53.132;6.370;2023-07-13T14:58:42;7.15;;;3.17;;
51943;SDS011;37969;53.132;6.370;2023-07-13T15:01:12;6.90;;;2.15;;
51943;SDS011;37969;53.132;6.370;2023-07-13T15:03:43;9.05;;;2.28;;
51943;SDS011;37969;53.132;6.370;2023-07-13T15:06:11;7.50;;;2.10;;
51943;SDS011;37969;53.132;6.370;2023-07-13T15:08:38;7.72;;;1.90;;
51943;SDS011;37969;53.132;6.370;2023-07-13T15:11:06;9.13;;;1.80;;
51943;SDS011;37969;53.132;6.370;2023-07-13T15:13:32;4.80;;;1.70;;
51943;SDS011;37969;53.132;6.370;2023-07-13T15:16:00;5.30;;;1.83;;
51943;SDS011;37969;53.132;6.370;2023-07-13T15:18:28;5.78;;;1.90;;
51943;SDS011;37969;53.132;6.370;2023-07-13T15:20:54;5.10;;;1.90;;
51943;SDS011;37969;53.132;6.370;2023-07-13T15:23:23;3.90;;;1.88;;